Time;durP1;ratioP1;P1;durP2;ratioP2;P2;SDS_P1;SDS_P2;PMS_P1;PMS_P2;Temp;Humidity;BMP_temperature;BMP_pressure;BME280_temperature;BME280_humidity;BME280_pressure;Samples;Min_cycle;Max_cycle;Signal;HPM_P1;HPM_P2
2023/06/26 00:00:22;;;;;;;;;3.00;3.00;;;;;24.32;50.90;101258.63;5036184;28;48438;-71
2023/06/26 00:02:47;;;;;;;;;4.00;4.00;;;;;24.28;50.90;101254.66;5037570;28;45453;-72
2023/06/26 00:05:13;;;;;;;;;4.33;4.33;;;;;24.21;51.22;101270.16;5037835;28;45776;-71
2023/06/26 00:07:38;;;;;;;;;3.00;3.00;;;;;24.12;51.08;101256.03;5037599;28;45421;-71
2023/06/26 00:10:05;;;;;;;;;4.00;4.00;;;;;23.94;51.08;101221.47;5037388;28;45586;-71
2023/06/26 00:12:31;;;;;;;;;5.00;4.00;;;;;24.29;51.00;101278.09;5019020;28;45604;-72
2023/06/26 00:14:57;;;;;;;;;2.00;2.00;;;;;24.22;51.06;101263.69;5037354;28;45329;-70
2023/06/26 00:17:22;;;;;;;;;4.33;4.00;;;;;24.25;50.55;101276.84;5037475;28;45235;-72
2023/06/26 00:19:48;;;;;;;;;4.33;3.00;;;;;24.12;50.21;101263.34;5037186;28;46026;-70
2023/06/26 00:22:14;;;;;;;;;4.00;4.00;;;;;24.19;49.99;101275.81;5036901;28;45332;-70
2023/06/26 00:24:39;;;;;;;;;4.00;4.00;;;;;24.15;50.15;101281.94;5037478;28;45417;-72
2023/06/26 00:27:05;;;;;;;;;3.67;3.67;;;;;24.08;49.94;101278.44;5037552;28;45206;-70
2023/06/26 00:29:30;;;;;;;;;5.33;4.00;;;;;24.09;50.32;101293.69;5036082;28;45699;-71
2023/06/26 00:31:56;;;;;;;;;4.00;4.00;;;;;24.07;50.84;101284.94;5036653;28;64643;-71
2023/06/26 00:34:21;;;;;;;;;4.33;4.33;;;;;23.88;50.61;101265.81;5019333;28;45382;-70
2023/06/26 00:36:46;;;;;;;;;2.33;1.67;;;;;24.09;51.12;101289.09;5037128;28;45544;-72
2023/06/26 00:39:12;;;;;;;;;4.33;3.33;;;;;24.04;50.95;101290.81;5036511;28;46399;-70
2023/06/26 00:41:37;;;;;;;;;5.33;5.33;;;;;24.00;50.66;101292.25;5018711;28;45346;-71
2023/06/26 00:44:06;;;;;;;;;4.00;3.67;;;;;23.96;51.03;101300.84;5035323;28;45444;-70
2023/06/26 00:46:32;;;;;;;;;5.00;3.00;;;;;23.86;51.30;101284.22;5037028;28;45323;-70
2023/06/26 00:49:03;;;;;;;;;4.00;4.00;;;;;24.01;50.86;101296.66;5036747;28;46262;-70
2023/06/26 00:51:30;;;;;;;;;4.33;3.00;;;;;23.97;50.74;101285.41;5036752;28;45349;-72
2023/06/26 00:53:57;;;;;;;;;7.00;5.00;;;;;24.03;50.83;101294.53;5036551;28;45263;-70
2023/06/26 00:56:23;;;;;;;;;4.67;3.00;;;;;23.88;50.84;101284.84;5036666;28;45271;-72
2023/06/26 00:58:48;;;;;;;;;6.67;5.67;;;;;23.75;51.23;101279.47;5036436;28;45613;-69
2023/06/26 01:01:21;;;;;;;;;4.67;4.67;;;;;23.79;51.58;101296.16;5018564;28;45769;-71
2023/06/26 01:03:51;;;;;;;;;4.33;3.67;;;;;23.79;51.69;101304.31;5018787;28;45357;-72
2023/06/26 01:06:18;;;;;;;;;4.67;4.67;;;;;23.66;52.01;101289.75;5037063;28;45406;-72
2023/06/26 01:08:44;;;;;;;;;5.67;4.00;;;;;22.42;51.80;101107.44;5018248;28;48802;-72
2023/06/26 01:11:10;;;;;;;;;3.33;3.33;;;;;23.60;51.92;101314.22;5036429;28;45642;-70
2023/06/26 01:13:36;;;;;;;;;4.33;3.00;;;;;23.63;51.58;101317.34;5036669;28;45383;-71
2023/06/26 01:16:04;;;;;;;;;4.00;2.67;;;;;23.55;52.00;101311.28;5018471;28;45623;-70
2023/06/26 01:18:30;;;;;;;;;5.33;4.00;;;;;23.54;52.00;101312.34;5036393;28;46308;-70
2023/06/26 01:21:01;;;;;;;;;2.33;2.33;;;;;23.62;52.34;101322.97;5036527;28;45256;-76
2023/06/26 01:23:47;;;;;;;;;4.00;4.00;;;;;23.63;51.90;101311.09;5018107;28;45480;-71
2023/06/26 01:26:25;;;;;;;;;4.00;4.00;;;;;23.44;52.80;101306.56;5036623;28;45546;-71
2023/06/26 01:28:53;;;;;;;;;2.67;2.33;;;;;23.50;52.87;101330.09;5036125;28;46241;-71
2023/06/26 01:31:19;;;;;;;;;4.00;2.00;;;;;23.48;52.31;101318.63;5036208;28;45317;-71
2023/06/26 01:33:46;;;;;;;;;4.00;4.00;;;;;23.47;52.33;101341.41;5018351;28;45338;-73
2023/06/26 01:36:12;;;;;;;;;7.00;6.00;;;;;23.38;52.83;101347.03;5018292;28;45349;-72
2023/06/26 01:38:37;;;;;;;;;5.00;3.67;;;;;23.38;52.75;101340.78;5035723;28;46434;-71
2023/06/26 01:41:04;;;;;;;;;4.00;3.33;;;;;23.28;53.08;101324.13;5019179;28;45464;-71
2023/06/26 01:43:51;;;;;;;;;6.00;5.33;;;;;23.36;52.63;101351.84;5039694;28;45466;-70
2023/06/26 01:46:27;;;;;;;;;5.00;4.33;;;;;23.34;52.91;101353.94;5021684;28;45346;-70
2023/06/26 01:49:04;;;;;;;;;4.00;4.00;;;;;23.36;53.36;101357.28;5039344;28;46729;-70
2023/06/26 01:51:34;;;;;;;;;9.67;7.33;;;;;23.29;53.20;101364.63;5039496;28;45478;-70
2023/06/26 01:54:01;;;;;;;;;8.00;6.33;;;;;23.19;53.45;101357.94;5039425;28;45306;-70
2023/06/26 01:56:28;;;;;;;;;6.00;6.00;;;;;23.22;53.54;101369.19;5039443;28;45442;-69
2023/06/26 01:58:54;;;;;;;;;7.33;7.33;;;;;23.13;53.21;101354.22;5039159;28;45610;-69
2023/06/26 02:01:20;;;;;;;;;9.67;7.67;;;;;23.23;52.99;101364.63;5021427;28;45559;-71
2023/06/26 02:03:47;;;;;;;;;6.00;6.00;;;;;23.21;52.63;101366.69;5039440;28;45470;-70
2023/06/26 02:06:12;;;;;;;;;9.67;9.33;;;;;22.96;52.64;101332.13;5039747;28;45398;-70
2023/06/26 02:08:38;;;;;;;;;4.33;4.33;;;;;23.17;52.31;101377.16;5021078;28;48213;-69
2023/06/26 02:11:03;;;;;;;;;6.67;5.00;;;;;23.10;52.70;101381.75;5039369;28;45402;-71
2023/06/26 02:13:28;;;;;;;;;4.00;4.00;;;;;23.14;52.77;101391.13;5038844;28;51803;-70
2023/06/26 02:15:54;;;;;;;;;4.00;4.00;;;;;23.09;52.33;101385.53;5038653;28;52625;-72
2023/06/26 02:18:22;;;;;;;;;2.33;2.33;;;;;23.09;52.26;101390.94;5039307;28;46728;-70
2023/06/26 02:20:47;;;;;;;;;5.00;4.00;;;;;23.06;52.54;101388.66;5039008;28;45436;-70
2023/06/26 02:23:13;;;;;;;;;4.67;4.00;;;;;23.00;52.05;101386.75;5038930;28;45489;-69
2023/06/26 02:25:38;;;;;;;;;4.00;4.00;;;;;22.90;52.29;101384.50;5039306;28;45593;-71
2023/06/26 02:28:03;;;;;;;;;4.00;2.33;;;;;22.92;51.86;101397.84;5020858;28;47252;-71
2023/06/26 02:30:29;;;;;;;;;2.00;2.00;;;;;22.87;51.83;101408.50;5038840;28;45499;-71
2023/06/26 02:32:54;;;;;;;;;3.33;3.33;;;;;22.79;51.85;101393.22;5039134;28;46069;-71
2023/06/26 02:35:19;;;;;;;;;3.00;3.00;;;;;22.83;51.98;101399.09;5039213;28;45487;-71
2023/06/26 02:37:45;;;;;;;;;4.00;3.33;;;;;22.89;51.78;101404.53;5038474;28;46361;-72
2023/06/26 02:40:10;;;;;;;;;1.67;1.67;;;;;22.57;51.25;101360.06;5020813;28;46092;-70
2023/06/26 02:42:35;;;;;;;;;3.67;3.00;;;;;22.80;51.07;101413.03;5038883;28;45360;-70
2023/06/26 02:45:01;;;;;;;;;2.33;2.33;;;;;22.67;50.83;101412.00;5039165;28;45234;-71
2023/06/26 02:47:26;;;;;;;;;2.00;2.00;;;;;22.69;50.96;101407.19;5038715;28;45542;-70
2023/06/26 02:49:51;;;;;;;;;2.00;2.00;;;;;22.38;51.22;101350.03;5020628;28;48630;-70
2023/06/26 02:52:17;;;;;;;;;2.00;2.00;;;;;22.70;50.48;101413.44;5038042;28;45780;-70
2023/06/26 02:54:42;;;;;;;;;3.33;0.33;;;;;22.35;50.47;101380.25;5038682;28;45496;-70
2023/06/26 02:57:07;;;;;;;;;1.33;1.33;;;;;22.55;50.57;101429.91;5038597;28;45811;-70
2023/06/26 02:59:33;;;;;;;;;3.33;1.00;;;;;22.50;50.29;101434.28;5038622;28;45439;-70
2023/06/26 03:01:58;;;;;;;;;2.00;2.00;;;;;22.48;50.82;101429.06;5038860;28;45798;-69
2023/06/26 03:04:24;;;;;;;;;1.00;1.00;;;;;22.14;51.22;101386.66;5020487;28;45286;-70
2023/06/26 03:06:49;;;;;;;;;4.00;2.00;;;;;22.10;50.88;101385.41;5036950;28;47967;-71
2023/06/26 03:09:16;;;;;;;;;2.00;2.00;;;;;22.26;51.15;101427.56;5038118;28;45273;-71
2023/06/26 03:11:41;;;;;;;;;1.00;1.00;;;;;22.26;51.26;101439.22;5038299;28;45341;-70
2023/06/26 03:14:06;;;;;;;;;1.00;1.00;;;;;22.24;51.39;101418.81;5038107;28;45230;-70
2023/06/26 03:16:32;;;;;;;;;1.67;1.00;;;;;21.98;51.24;101371.59;5037508;28;61643;-70
2023/06/26 03:18:57;;;;;;;;;3.00;3.00;;;;;22.19;51.53;101422.09;5038124;28;45495;-70
2023/06/26 03:21:22;;;;;;;;;2.33;2.33;;;;;22.24;51.32;101435.06;5038306;28;45369;-70
2023/06/26 03:23:48;;;;;;;;;3.00;2.00;;;;;22.27;51.31;101435.47;5020203;28;45505;-71
2023/06/26 03:26:14;;;;;;;;;2.67;1.00;;;;;22.25;51.27;101436.72;5037983;28;46571;-71
2023/06/26 03:28:40;;;;;;;;;4.00;1.00;;;;;22.22;50.97;101434.38;5037825;28;45270;-71
2023/06/26 03:31:05;;;;;;;;;2.00;2.00;;;;;22.22;51.16;101432.50;5038196;28;45552;-70
2023/06/26 03:33:31;;;;;;;;;3.67;2.00;;;;;22.27;51.73;101450.88;5038155;28;45301;-70
2023/06/26 03:35:56;;;;;;;;;3.00;1.67;;;;;22.15;51.49;101448.75;5037692;28;45491;-71
2023/06/26 03:38:23;;;;;;;;;4.00;2.00;;;;;22.20;51.67;101450.84;5019693;28;45469;-70
2023/06/26 03:40:49;;;;;;;;;2.33;2.33;;;;;22.24;52.38;101456.72;5037945;28;45282;-74
2023/06/26 03:43:14;;;;;;;;;2.33;1.33;;;;;22.25;51.72;101458.38;5036734;28;45270;-69
2023/06/26 03:45:39;;;;;;;;;2.67;1.00;;;;;22.24;51.91;101459.44;5037457;28;45520;-69
2023/06/26 03:48:05;;;;;;;;;2.00;2.00;;;;;22.06;52.34;101452.69;5037013;28;56917;-69
2023/06/26 03:50:30;;;;;;;;;3.00;3.00;;;;;22.14;52.15;101462.50;5019689;28;45438;-71
2023/06/26 03:52:55;;;;;;;;;2.00;2.00;;;;;22.15;52.60;101481.25;5037957;28;45205;-70
2023/06/26 03:55:22;;;;;;;;;3.33;2.00;;;;;21.96;52.39;101454.06;5019290;28;48065;-70
2023/06/26 03:57:47;;;;;;;;;2.00;2.00;;;;;22.14;52.71;101479.59;5037254;28;45447;-70
2023/06/26 04:00:13;;;;;;;;;3.33;2.67;;;;;22.09;52.64;101487.50;5037612;28;45440;-69
2023/06/26 04:02:39;;;;;;;;;4.33;1.67;;;;;22.07;52.30;101489.56;5036426;28;45581;-70
2023/06/26 04:05:04;;;;;;;;;4.00;2.67;;;;;21.93;52.48;101471.53;5036141;28;46352;-70
2023/06/26 04:07:31;;;;;;;;;5.33;5.33;;;;;22.03;52.44;101499.09;5037209;28;45745;-70
2023/06/26 04:09:59;;;;;;;;;3.33;2.33;;;;;22.00;52.69;101491.34;5019818;28;45416;-70
2023/06/26 04:12:24;;;;;;;;;2.67;2.00;;;;;21.70;52.27;101438.53;5037462;28;45530;-69
2023/06/26 04:14:50;;;;;;;;;4.67;3.00;;;;;22.04;52.44;101495.38;5037147;28;46767;-71
2023/06/26 04:17:15;;;;;;;;;3.33;3.33;;;;;22.00;52.42;101495.94;5036952;28;45285;-70
2023/06/26 04:19:40;;;;;;;;;3.00;3.00;;;;;21.73;52.55;101455.19;5037389;28;45520;-68
2023/06/26 04:22:06;;;;;;;;;4.00;2.33;;;;;22.02;52.03;101505.53;5019414;28;45568;-70
2023/06/26 04:24:31;;;;;;;;;4.00;2.00;;;;;22.05;52.31;101507.88;5037270;28;46434;-70
2023/06/26 04:26:56;;;;;;;;;2.00;2.00;;;;;21.97;52.61;101501.75;5036783;28;45512;-70
2023/06/26 04:29:25;;;;;;;;;4.00;4.00;;;;;21.97;52.48;101499.88;5019313;28;45657;-71
2023/06/26 04:31:51;;;;;;;;;4.00;2.00;;;;;22.04;52.55;101510.78;5037422;28;45503;-69
2023/06/26 04:34:16;;;;;;;;;4.33;3.67;;;;;21.79;52.78;101467.09;5036549;28;45906;-72
2023/06/26 04:36:46;;;;;;;;;6.00;6.00;;;;;22.02;53.10;101519.06;5036596;28;45409;-71
2023/06/26 04:39:11;;;;;;;;;3.00;2.00;;;;;22.01;53.43;101522.81;5036881;28;45250;-69
2023/06/26 04:41:37;;;;;;;;;3.67;1.00;;;;;21.96;53.88;101527.16;5037144;28;45533;-69
2023/06/26 04:44:02;;;;;;;;;3.67;3.67;;;;;22.00;53.46;101521.13;5036926;28;46414;-71
2023/06/26 04:46:28;;;;;;;;;3.00;3.00;;;;;21.82;53.64;101491.91;5036801;28;45274;-71
2023/06/26 04:48:53;;;;;;;;;4.33;3.00;;;;;22.06;53.60;101520.41;5036981;28;45523;-70
2023/06/26 04:51:20;;;;;;;;;0.33;0.00;;;;;22.06;53.74;101528.50;5037112;28;45427;-71
2023/06/26 04:53:45;;;;;;;;;8.33;6.00;;;;;22.06;53.68;101528.50;5036445;28;46565;-70
2023/06/26 04:56:11;;;;;;;;;8.00;5.33;;;;;22.11;53.34;101534.16;5036235;28;45470;-70
2023/06/26 04:58:36;;;;;;;;;6.67;5.00;;;;;22.04;53.29;101527.88;5036943;28;45428;-70
2023/06/26 05:01:01;;;;;;;;;5.00;5.00;;;;;22.23;53.95;101536.31;5037003;28;45409;-70
2023/06/26 05:03:27;;;;;;;;;5.00;4.00;;;;;22.34;53.22;101538.44;5018132;28;50561;-69
2023/06/26 05:05:53;;;;;;;;;2.33;2.33;;;;;22.43;52.95;101532.66;5036725;28;45436;-70
2023/06/26 05:08:21;;;;;;;;;6.00;5.00;;;;;22.39;53.16;101519.69;5018423;28;45421;-70
2023/06/26 05:10:47;;;;;;;;;4.00;3.00;;;;;22.51;52.46;101542.47;5037078;28;45467;-71
2023/06/26 05:13:15;;;;;;;;;4.67;4.67;;;;;22.49;52.43;101539.13;5035937;28;46416;-71
2023/06/26 05:15:41;;;;;;;;;3.67;3.00;;;;;22.59;52.30;101546.84;5035921;28;45362;-71
2023/06/26 05:18:07;;;;;;;;;2.00;2.00;;;;;22.63;52.23;101551.69;5036252;28;45331;-70
2023/06/26 05:20:34;;;;;;;;;4.00;3.67;;;;;22.70;52.00;101554.41;5036869;28;45581;-71
2023/06/26 05:23:02;;;;;;;;;4.00;4.00;;;;;22.57;52.08;101528.09;5036276;28;45250;-72
2023/06/26 05:25:32;;;;;;;;;2.33;2.33;;;;;22.81;51.83;101563.81;5018062;28;45693;-70
2023/06/26 05:27:58;;;;;;;;;3.00;3.00;;;;;22.73;51.83;101548.56;5018821;28;45564;-70
2023/06/26 05:30:25;;;;;;;;;3.00;3.00;;;;;22.75;51.40;101558.16;5018620;28;45491;-70
2023/06/26 05:32:52;;;;;;;;;4.67;3.33;;;;;22.72;51.57;101545.03;5036241;28;45393;-72
2023/06/26 05:35:20;;;;;;;;;5.67;4.67;;;;;22.90;51.45;101570.75;5002137;28;45538;-71
2023/06/26 05:37:48;;;;;;;;;4.00;4.00;;;;;22.86;50.86;101569.50;5016107;28;45438;-69
2023/06/26 05:40:14;;;;;;;;;7.00;5.67;;;;;22.83;50.96;101561.78;5016599;28;45254;-70
2023/06/26 05:42:40;;;;;;;;;3.00;2.67;;;;;22.98;51.05;101565.13;4998149;28;46420;-70
2023/06/26 05:45:06;;;;;;;;;6.00;4.67;;;;;23.03;50.69;101571.63;5016449;28;45505;-72
2023/06/26 05:47:31;;;;;;;;;4.67;4.67;;;;;22.82;51.04;101531.09;5010559;28;45476;-70
2023/06/26 05:49:57;;;;;;;;;6.00;6.00;;;;;23.17;50.44;101561.63;4996666;28;45539;-70
2023/06/26 05:52:22;;;;;;;;;5.33;4.33;;;;;23.22;49.90;101548.25;4978109;28;48050;-70
2023/06/26 05:54:48;;;;;;;;;5.67;5.33;;;;;23.65;49.68;101575.03;4978749;28;46024;-68
2023/06/26 05:57:15;;;;;;;;;7.00;4.33;;;;;23.92;48.58;101565.78;4996725;28;46532;-69
2023/06/26 05:59:42;;;;;;;;;7.00;7.00;;;;;23.92;48.47;101562.25;5007871;28;45487;-69
2023/06/26 06:02:08;;;;;;;;;4.67;4.67;;;;;23.96;48.40;101569.75;5002606;28;46744;-69
2023/06/26 06:04:35;;;;;;;;;5.33;5.33;;;;;24.00;48.34;101566.59;4996113;28;45417;-69
2023/06/26 06:07:00;;;;;;;;;7.00;5.33;;;;;24.04;48.52;101573.31;4996112;28;45423;-71
2023/06/26 06:09:25;;;;;;;;;6.67;5.67;;;;;24.02;47.11;101576.22;5000705;28;45508;-69
2023/06/26 06:11:51;;;;;;;;;5.67;5.67;;;;;23.96;47.79;101560.78;4995894;28;51999;-70
2023/06/26 06:14:16;;;;;;;;;7.67;7.67;;;;;24.20;47.22;101567.38;4995860;28;45539;-70
2023/06/26 06:16:41;;;;;;;;;7.00;5.67;;;;;24.46;46.93;101567.34;4996099;28;45449;-70
2023/06/26 06:19:07;;;;;;;;;5.67;5.00;;;;;24.74;46.36;101568.88;4978749;28;45311;-71
2023/06/26 06:21:33;;;;;;;;;6.00;6.00;;;;;24.53;45.50;101512.94;5010651;28;45513;-73
2023/06/26 06:23:58;;;;;;;;;8.67;8.67;;;;;24.98;45.31;101578.13;4995922;28;45417;-73
2023/06/26 06:26:23;;;;;;;;;6.33;5.00;;;;;25.07;45.00;101568.72;4994926;28;45342;-70
2023/06/26 06:28:49;;;;;;;;;7.00;5.00;;;;;25.13;44.63;101584.97;4998223;28;45370;-70
2023/06/26 06:31:14;;;;;;;;;7.00;7.00;;;;;25.20;44.54;101586.81;4998058;28;46238;-70
2023/06/26 06:33:40;;;;;;;;;5.00;5.00;;;;;25.20;44.35;101590.38;4996563;28;45997;-70
2023/06/26 06:36:08;;;;;;;;;7.00;7.00;;;;;25.23;44.69;101589.09;4997001;28;45460;-68
2023/06/26 06:38:33;;;;;;;;;5.00;5.00;;;;;25.34;44.31;101599.28;4980151;28;45398;-71
2023/06/26 06:40:59;;;;;;;;;4.00;4.00;;;;;25.49;43.66;101610.69;4997718;28;47772;-69
2023/06/26 06:43:25;;;;;;;;;6.00;5.67;;;;;25.53;43.81;101601.03;4980226;28;45284;-70
2023/06/26 06:45:50;;;;;;;;;6.00;5.00;;;;;25.70;43.71;101614.94;4999161;28;45460;-69
2023/06/26 06:48:16;;;;;;;;;6.33;5.00;;;;;25.80;43.04;101611.69;4998993;28;45287;-71
2023/06/26 06:50:41;;;;;;;;;5.67;5.00;;;;;25.95;42.92;101620.38;4998256;28;45466;-70
2023/06/26 06:53:07;;;;;;;;;4.33;4.00;;;;;25.95;42.55;101614.91;5000428;28;45609;-71
2023/06/26 06:55:32;;;;;;;;;4.67;4.00;;;;;25.63;42.38;101563.25;5006271;28;45400;-69
2023/06/26 06:57:58;;;;;;;;;2.67;2.00;;;;;25.98;42.69;101620.75;5010451;28;51868;-68
2023/06/26 07:00:23;;;;;;;;;1.67;1.67;;;;;25.99;42.36;101618.84;5016675;28;45298;-69
2023/06/26 07:02:48;;;;;;;;;4.00;4.00;;;;;25.87;42.81;101613.34;4998326;28;45417;-69
2023/06/26 07:05:14;;;;;;;;;5.00;5.00;;;;;25.89;42.80;101621.28;4997022;28;45354;-69
2023/06/26 07:07:39;;;;;;;;;12.00;9.00;;;;;25.77;42.91;101599.38;4999607;28;45375;-70
2023/06/26 07:10:11;;;;;;;;;5.33;4.33;;;;;25.97;42.26;101620.97;5004904;28;46284;-71
2023/06/26 07:12:36;;;;;;;;;5.67;4.00;;;;;25.96;42.32;101605.69;5004436;28;45485;-70
2023/06/26 07:15:04;;;;;;;;;3.00;3.00;;;;;26.08;41.68;101609.34;5007407;28;45616;-73
2023/06/26 07:17:33;;;;;;;;;4.67;2.00;;;;;26.13;41.86;101609.50;5004593;28;45527;-72
2023/06/26 07:19:59;;;;;;;;;5.00;5.00;;;;;26.21;41.20;101617.38;4999516;28;48579;-70
2023/06/26 07:22:24;;;;;;;;;4.33;3.00;;;;;26.25;41.42;101621.34;5008008;28;45475;-70
2023/06/26 07:24:50;;;;;;;;;5.33;4.00;;;;;26.27;41.45;101612.91;5014558;28;45456;-70
2023/06/26 07:27:16;;;;;;;;;10.33;6.33;;;;;26.40;40.88;101628.31;4997909;28;47138;-69
2023/06/26 07:29:42;;;;;;;;;4.67;4.00;;;;;26.41;40.86;101624.53;5033980;28;45610;-70
2023/06/26 07:32:08;;;;;;;;;6.33;4.67;;;;;26.44;40.83;101624.09;5001351;28;45380;-72
2023/06/26 07:34:33;;;;;;;;;5.33;5.33;;;;;26.45;40.89;101623.03;5011940;28;45463;-67
2023/06/26 07:36:59;;;;;;;;;5.00;4.00;;;;;26.50;41.06;101617.72;4993687;28;45513;-69
2023/06/26 07:39:24;;;;;;;;;4.33;3.00;;;;;26.55;40.46;101612.41;5032415;28;46200;-70
2023/06/26 07:41:50;;;;;;;;;7.00;5.33;;;;;26.62;40.12;101621.31;5012295;28;45407;-72
2023/06/26 07:44:15;;;;;;;;;8.67;5.33;;;;;26.58;39.83;101603.75;5012772;28;45470;-69
2023/06/26 07:46:41;;;;;;;;;4.00;4.00;;;;;26.80;39.64;101624.03;5016188;28;45482;-71
2023/06/26 07:49:06;;;;;;;;;8.00;5.33;;;;;26.90;39.21;101635.25;5006284;28;46509;-70
2023/06/26 07:51:32;;;;;;;;;6.00;6.00;;;;;27.00;39.14;101636.59;4996318;28;46143;-70
2023/06/26 07:53:57;;;;;;;;;4.00;4.00;;;;;26.88;39.80;101598.34;5019626;28;45458;-71
2023/06/26 07:56:23;;;;;;;;;10.00;7.00;;;;;27.08;39.02;101633.56;5012782;28;45318;-71
2023/06/26 07:58:48;;;;;;;;;4.00;3.00;;;;;27.11;39.00;101635.84;5016300;28;45533;-71
2023/06/26 08:01:14;;;;;;;;;5.00;4.00;;;;;26.70;38.98;101568.38;4989336;28;45374;-69
2023/06/26 08:03:40;;;;;;;;;9.00;6.67;;;;;27.13;38.87;101645.44;5005785;28;45409;-69
2023/06/26 08:06:05;;;;;;;;;7.67;5.00;;;;;27.12;38.50;101640.22;5011540;28;45494;-69
2023/06/26 08:08:31;;;;;;;;;5.67;4.00;;;;;27.11;38.68;101624.91;5016193;28;46717;-70
2023/06/26 08:10:56;;;;;;;;;4.67;4.67;;;;;27.25;37.99;101638.16;5012024;28;46868;-69
2023/06/26 08:13:21;;;;;;;;;6.33;4.00;;;;;27.34;37.75;101640.53;5002376;28;45776;-71
2023/06/26 08:15:47;;;;;;;;;5.33;4.33;;;;;27.11;38.43;101608.53;4991632;28;45532;-70
2023/06/26 08:18:12;;;;;;;;;4.00;4.00;;;;;27.20;37.79;101648.06;5016522;28;45685;-71
2023/06/26 08:20:38;;;;;;;;;4.67;3.67;;;;;27.17;37.84;101656.72;5005130;28;46206;-70
2023/06/26 08:23:04;;;;;;;;;4.67;2.33;;;;;27.03;38.05;101647.06;5015278;28;45496;-69
2023/06/26 08:25:30;;;;;;;;;2.33;2.33;;;;;26.91;37.87;101636.91;5016375;28;45512;-71
2023/06/26 08:27:55;;;;;;;;;3.00;3.00;;;;;27.05;37.87;101661.34;5014095;28;45551;-71
2023/06/26 08:30:22;;;;;;;;;2.67;2.67;;;;;27.12;36.90;101653.88;5004044;28;45332;-72
2023/06/26 08:32:48;;;;;;;;;4.67;3.67;;;;;27.14;37.16;101654.47;5008496;28;45454;-71
2023/06/26 08:35:13;;;;;;;;;4.33;4.00;;;;;26.86;37.39;101600.47;5017000;28;45798;-71
2023/06/26 08:37:39;;;;;;;;;6.00;4.00;;;;;27.24;36.98;101660.22;5021109;28;47572;-72
2023/06/26 08:40:05;;;;;;;;;4.00;4.00;;;;;27.26;37.12;101649.91;5018064;28;46385;-70
2023/06/26 08:42:30;;;;;;;;;3.00;3.00;;;;;27.05;36.67;101625.84;5005480;28;45511;-73
2023/06/26 08:44:56;;;;;;;;;3.00;3.00;;;;;27.19;37.04;101649.13;5016897;28;45492;-71
2023/06/26 08:47:21;;;;;;;;;3.00;3.00;;;;;27.06;36.07;101617.44;5007637;28;46954;-70
2023/06/26 08:49:53;;;;;;;;;8.00;8.00;;;;;27.32;36.57;101648.13;5016108;28;45318;-71
2023/06/26 08:52:30;;;;;;;;;6.00;6.00;;;;;27.32;36.60;101631.75;4992607;28;45393;-70
2023/06/26 08:54:58;;;;;;;;;2.00;2.00;;;;;27.29;36.04;101622.13;5005984;28;45552;-70
2023/06/26 08:57:25;;;;;;;;;4.67;4.00;;;;;27.26;35.91;101611.66;5005633;28;47148;-73
2023/06/26 08:59:52;;;;;;;;;2.00;2.00;;;;;27.49;35.81;101639.03;5016219;28;45294;-70
2023/06/26 09:02:23;;;;;;;;;3.00;3.00;;;;;27.49;35.82;101644.50;4997398;28;45425;-70
2023/06/26 09:04:50;;;;;;;;;3.00;3.00;;;;;27.61;35.47;101668.25;5002819;28;45466;-72
2023/06/26 09:07:16;;;;;;;;;4.00;4.00;;;;;27.61;34.63;101662.78;4996584;28;46222;-70
2023/06/26 09:09:41;;;;;;;;;2.67;2.00;;;;;27.56;33.73;101642.47;5009600;28;45381;-70
2023/06/26 09:12:08;;;;;;;;;3.00;2.00;;;;;27.58;34.09;101645.81;5018310;28;45318;-75
2023/06/26 09:14:35;;;;;;;;;1.00;1.00;;;;;27.67;34.50;101645.50;5007054;28;45363;-72
2023/06/26 09:17:00;;;;;;;;;3.00;3.00;;;;;27.70;34.21;101634.09;4997298;28;45780;-72
2023/06/26 09:19:26;;;;;;;;;5.00;3.67;;;;;27.81;33.69;101642.28;5009820;28;45247;-70
2023/06/26 09:21:52;;;;;;;;;5.67;3.00;;;;;27.87;33.48;101657.75;5016206;28;45390;-71
2023/06/26 09:24:17;;;;;;;;;4.00;2.67;;;;;27.88;33.49;101642.19;5015302;28;46318;-70
2023/06/26 09:26:43;;;;;;;;;4.00;3.00;;;;;27.73;33.72;101628.16;4999574;28;45449;-70
2023/06/26 09:29:09;;;;;;;;;4.00;4.00;;;;;27.82;33.50;101654.06;5014072;28;45447;-71
2023/06/26 09:31:39;;;;;;;;;4.00;3.00;;;;;27.54;33.96;101620.03;4998289;28;45408;-73
2023/06/26 09:34:05;;;;;;;;;5.33;5.33;;;;;27.65;33.61;101647.66;5007067;28;45468;-73
2023/06/26 09:36:32;;;;;;;;;4.00;4.00;;;;;27.59;34.29;101639.28;5013962;28;45679;-72
2023/06/26 09:39:04;;;;;;;;;6.33;4.00;;;;;27.34;33.82;101614.06;5015805;28;45275;-70
2023/06/26 09:41:30;;;;;;;;;3.00;3.00;;;;;27.25;34.03;101599.09;5003602;28;45650;-77
2023/06/26 09:44:00;;;;;;;;;3.67;3.67;;;;;27.52;33.55;101657.69;4983542;28;45511;-72
2023/06/26 09:46:27;;;;;;;;;3.00;3.00;;;;;27.38;32.75;101625.34;5014333;28;46068;-71
2023/06/26 09:49:04;;;;;;;;;3.33;3.00;;;;;27.35;33.23;101609.44;5013813;28;45544;-75
2023/06/26 09:51:34;;;;;;;;;4.00;3.00;;;;;27.63;33.22;101649.75;5004842;28;45254;-70
2023/06/26 09:54:00;;;;;;;;;3.33;3.33;;;;;27.52;33.67;101633.09;4988967;28;45542;-70
2023/06/26 09:56:27;;;;;;;;;3.00;3.00;;;;;27.59;33.23;101644.72;4993924;28;45400;-74
2023/06/26 09:58:56;;;;;;;;;4.33;4.00;;;;;27.57;33.48;101644.13;5014777;28;45513;-69
2023/06/26 10:01:22;;;;;;;;;3.67;3.67;;;;;27.67;32.62;101661.91;4997130;28;45387;-68
2023/06/26 10:03:47;;;;;;;;;2.67;2.67;;;;;27.56;31.80;101653.41;5001604;28;45788;-69
2023/06/26 10:06:14;;;;;;;;;2.67;1.00;;;;;27.64;32.75;101662.38;5019247;28;45811;-71
2023/06/26 10:08:41;;;;;;;;;4.00;3.00;;;;;27.61;31.89;101668.25;5018459;28;45473;-72
2023/06/26 10:11:10;;;;;;;;;5.33;4.00;;;;;27.49;31.63;101651.84;5024260;28;45577;-69
2023/06/26 10:13:41;;;;;;;;;2.33;2.00;;;;;27.39;31.69;101638.75;5019420;28;45369;-70
2023/06/26 10:16:09;;;;;;;;;2.67;2.67;;;;;27.52;31.42;101681.44;5018726;28;47165;-71
2023/06/26 10:18:38;;;;;;;;;1.67;1.67;;;;;27.52;31.81;101675.97;5018862;28;45222;-74
2023/06/26 10:21:06;;;;;;;;;2.00;2.00;;;;;27.42;31.80;101654.66;5021161;28;45440;-70
2023/06/26 10:23:33;;;;;;;;;3.00;3.00;;;;;27.49;31.96;101663.63;5020675;28;45463;-72
2023/06/26 10:26:00;;;;;;;;;3.67;3.67;;;;;27.21;31.73;101625.16;5014746;28;46538;-73
2023/06/26 10:28:29;;;;;;;;;4.00;3.00;;;;;27.49;30.67;101652.69;4998509;28;45611;-70
2023/06/26 10:30:56;;;;;;;;;3.00;3.00;;;;;27.54;30.98;101669.19;5016415;28;45464;-70
2023/06/26 10:33:22;;;;;;;;;4.00;4.00;;;;;27.58;30.87;101670.38;5019039;28;45832;-70
2023/06/26 10:35:49;;;;;;;;;4.00;4.00;;;;;27.54;31.09;101658.28;5003700;28;46534;-69
2023/06/26 10:38:14;;;;;;;;;4.33;4.33;;;;;27.56;31.62;101675.25;4998685;28;45480;-70
2023/06/26 10:40:45;;;;;;;;;3.67;3.00;;;;;27.55;31.05;101665.41;5016151;28;46074;-70
2023/06/26 10:43:13;;;;;;;;;2.00;2.00;;;;;27.47;32.33;101673.09;5001159;28;45342;-70
2023/06/26 10:45:55;;;;;;;;;7.00;4.00;;;;;27.28;32.32;101654.06;5033996;28;46397;-70
2023/06/26 10:48:21;;;;;;;;;3.00;3.00;;;;;27.40;32.43;101664.16;5038356;28;45522;-70
2023/06/26 10:50:50;;;;;;;;;4.33;3.33;;;;;27.39;32.86;101668.78;5038451;28;45547;-70
2023/06/26 10:53:24;;;;;;;;;4.67;3.33;;;;;27.37;33.23;101672.81;5020858;28;45275;-70
2023/06/26 10:55:57;;;;;;;;;3.33;3.33;;;;;27.42;32.00;101668.31;5019572;28;47856;-69
2023/06/26 10:58:31;;;;;;;;;6.00;4.33;;;;;27.38;32.25;101664.41;5018528;28;45571;-68
2023/06/26 11:01:14;;;;;;;;;6.33;5.00;;;;;27.47;31.84;101667.66;5017469;28;45329;-71
2023/06/26 11:03:42;;;;;;;;;5.67;4.00;;;;;27.46;30.12;101661.34;5016570;28;45392;-70
2023/06/26 11:06:12;;;;;;;;;3.00;3.00;;;;;27.41;31.18;101671.28;5035176;28;46412;-70
2023/06/26 11:08:51;;;;;;;;;2.33;2.33;;;;;27.42;31.20;101665.59;5037738;28;45468;-69
2023/06/26 11:11:17;;;;;;;;;7.00;5.00;;;;;27.42;30.70;101665.59;5031314;28;45482;-69
2023/06/26 11:13:45;;;;;;;;;4.00;3.33;;;;;27.37;31.42;101651.81;4998059;28;45333;-70
2023/06/26 11:16:12;;;;;;;;;8.00;5.67;;;;;27.40;31.42;101673.19;5016560;28;46454;-69
2023/06/26 11:18:38;;;;;;;;;4.00;4.00;;;;;27.16;31.26;101638.69;5017988;28;45267;-69
2023/06/26 11:21:08;;;;;;;;;4.00;4.00;;;;;27.31;30.39;101669.13;5035034;28;45497;-71